Time;durP1;ratioP1;P1;durP2;ratioP2;P2;SDS_P1;SDS_P2;PMS_P1;PMS_P2;Temp;Humidity;BMP_temperature;BMP_pressure;BME280_temperature;BME280_humidity;BME280_pressure;Samples;Min_cycle;Max_cycle;Signal;HPM_P1;HPM_P2
2022/01/22 00:01:57;;;;;;;17.58;14.68;;;;;;;6.66;77.83;101805.25;5099250;28;20052;-84
2022/01/22 00:04:25;;;;;;;17.30;14.25;;;;;;;6.65;78.23;101805.50;5097722;28;20048;-84
2022/01/22 00:06:55;;;;;;;17.92;13.85;;;;;;;6.62;77.67;101809.63;5093020;28;20052;-84
2022/01/22 00:09:25;;;;;;;14.77;12.55;;;;;;;6.62;78.20;101817.09;5092788;28;20052;-84
2022/01/22 00:11:54;;;;;;;13.40;11.70;;;;;;;6.77;77.82;101817.31;5098859;28;20054;-84
2022/01/22 00:14:23;;;;;;;14.35;12.65;;;;;;;6.80;77.84;101814.00;5098269;28;20063;-84
2022/01/22 00:16:51;;;;;;;16.85;12.48;;;;;;;6.80;77.28;101827.84;5087887;28;20508;-84
2022/01/22 00:19:21;;;;;;;14.60;11.73;;;;;;;6.77;76.41;101824.78;5098982;28;20048;-84
2022/01/22 00:21:48;;;;;;;12.77;11.48;;;;;;;6.79;76.96;101822.59;5097452;28;20056;-83
2022/01/22 00:24:16;;;;;;;13.50;11.50;;;;;;;6.59;77.78;101823.97;5100094;28;20048;-84
2022/01/22 00:26:45;;;;;;;12.23;10.65;;;;;;;6.73;77.77;101816.13;5099381;28;20075;-84
2022/01/22 00:29:13;;;;;;;14.87;12.13;;;;;;;6.57;77.61;101820.59;5099178;28;20485;-84
2022/01/22 00:31:41;;;;;;;14.45;12.95;;;;;;;6.45;79.00;101817.13;5099016;28;20405;-84
2022/01/22 00:34:09;;;;;;;14.75;11.82;;;;;;;6.56;78.06;101818.13;5098987;28;20048;-84
2022/01/22 00:36:39;;;;;;;16.60;13.43;;;;;;;6.59;77.57;101815.66;5099520;28;20044;-84
2022/01/22 00:39:09;;;;;;;;;;;;;;;6.41;78.96;101800.19;5099845;28;20052;-83
2022/01/22 00:41:36;;;;;;;14.60;13.02;;;;;;;6.58;78.44;101796.56;5078710;28;19920;-83
2022/01/22 00:44:04;;;;;;;15.23;12.70;;;;;;;6.67;78.48;101804.16;5078809;28;20053;-84
2022/01/22 00:46:32;;;;;;;15.15;13.13;;;;;;;6.70;77.56;101800.06;5088582;28;20476;-84
2022/01/22 00:49:00;;;;;;;13.75;11.45;;;;;;;6.78;77.55;101799.59;5098577;28;20051;-83
2022/01/22 00:51:27;;;;;;;13.07;11.48;;;;;;;6.72;77.72;101800.63;5097440;28;20044;-82
2022/01/22 00:53:57;;;;;;;17.42;12.77;;;;;;;6.70;77.62;101806.41;5098522;28;20055;-83
2022/01/22 00:56:25;;;;;;;14.48;11.77;;;;;;;6.78;77.76;101799.59;5098383;28;20063;-84
2022/01/22 00:58:52;;;;;;;15.02;13.32;;;;;;;6.76;77.12;101807.34;5099097;28;20059;-84
2022/01/22 01:01:19;;;;;;;13.98;11.60;;;;;;;6.87;77.43;101803.59;5098665;28;20315;-84
2022/01/22 01:03:47;;;;;;;14.75;11.68;;;;;;;6.70;77.60;101803.66;5098625;28;20044;-84
2022/01/22 01:06:14;;;;;;;15.57;13.05;;;;;;;6.61;77.33;101807.94;5098579;28;20056;-83
2022/01/22 01:08:43;;;;;;;16.13;12.85;;;;;;;6.73;77.50;101798.69;5097949;28;20423;-83
2022/01/22 01:11:13;;;;;;;16.25;13.52;;;;;;;6.70;77.65;101800.06;5097569;28;20044;-83
2022/01/22 01:13:45;;;;;;;15.77;12.75;;;;;;;6.65;78.23;101791.66;5097142;28;20055;-84
2022/01/22 01:16:22;;;;;;;15.10;12.80;;;;;;;6.75;77.79;101805.66;5094772;28;20535;-84
2022/01/22 01:32:43;;;;;;;21.00;17.73;;;;;;;6.50;79.02;101803.34;5102444;28;20048;-84
2022/01/22 01:35:11;;;;;;;20.25;14.98;;;;;;;6.56;78.32;101795.97;5096770;28;20503;-84
2022/01/22 01:37:38;;;;;;;16.30;13.80;;;;;;;6.61;77.84;101796.03;5096379;28;20477;-84
2022/01/22 01:40:08;;;;;;;18.00;13.43;;;;;;;6.58;77.77;101805.69;5098041;28;20048;-84
2022/01/22 01:42:45;;;;;;;;;;;;;;;6.43;78.15;101799.94;5098697;28;20055;-84
2022/01/22 01:45:12;;;;;;;14.43;12.38;;;;;;;6.55;78.41;101811.75;5097471;28;19920;-83
2022/01/22 01:47:42;;;;;;;16.13;14.10;;;;;;;6.65;78.30;101811.88;5097816;28;20056;-83
2022/01/22 01:50:10;;;;;;;17.65;14.65;;;;;;;6.54;78.38;101804.53;5096666;28;20056;-83
2022/01/22 01:52:44;;;;;;;18.00;14.93;;;;;;;6.61;77.68;101802.41;5097620;28;20050;-83
2022/01/22 01:55:15;;;;;;;17.92;14.15;;;;;;;6.51;77.84;101796.75;5097267;28;20059;-83
2022/01/22 01:57:43;;;;;;;18.23;15.13;;;;;;;6.68;78.23;101807.78;5096675;28;20056;-83
2022/01/22 02:00:16;;;;;;;14.38;12.88;;;;;;;6.64;78.02;101803.84;5097880;28;20067;-83
2022/01/22 02:02:46;;;;;;;16.48;14.40;;;;;;;6.69;78.09;101814.97;5096973;28;20055;-84
2022/01/22 02:05:14;;;;;;;;;;;;;;;6.66;77.38;101813.56;5098051;28;20444;-83
2022/01/22 02:07:43;;;;;;;17.05;14.68;;;;;;;6.64;77.38;101823.22;5096701;28;19920;-83
2022/01/22 02:10:18;;;;;;;14.95;12.25;;;;;;;6.71;76.89;101818.31;5096730;28;20051;-82
2022/01/22 02:13:40;;;;;;;16.50;13.63;;;;;;;6.67;76.86;101814.38;5100412;28;20064;-83
2022/01/22 02:24:06;;;;;;;19.33;14.38;;;;;;;6.56;78.00;101812.59;5105654;28;20055;-83
2022/01/22 02:26:36;;;;;;;18.37;15.00;;;;;;;6.50;78.79;101804.19;5103593;28;20054;-83
2022/01/22 02:29:07;;;;;;;16.08;13.90;;;;;;;6.52;78.07;101805.88;5104015;28;20074;-83
2022/01/22 02:31:39;;;;;;;15.88;14.25;;;;;;;6.57;78.05;101803.16;5103368;28;20052;-84
2022/01/22 02:34:14;;;;;;;15.93;14.30;;;;;;;6.53;78.41;101802.00;5104239;28;20063;-83
2022/01/22 02:36:56;;;;;;;14.57;13.02;;;;;;;6.58;78.63;101794.63;5103220;28;20044;-85
2022/01/22 02:39:35;;;;;;;17.27;14.93;;;;;;;6.70;77.70;101797.28;5089619;28;20044;-83
2022/01/22 02:42:02;;;;;;;16.35;13.50;;;;;;;6.59;78.06;101795.44;5099824;28;20043;-84
2022/01/22 02:44:43;;;;;;;17.02;14.63;;;;;;;6.61;77.86;101791.31;5102051;28;20043;-85
2022/01/22 02:47:10;;;;;;;15.77;14.15;;;;;;;6.53;78.83;101788.16;5103320;28;20063;-84
2022/01/22 02:49:38;;;;;;;15.85;14.18;;;;;;;6.67;78.12;101792.25;5102058;28;20048;-84
2022/01/22 02:52:09;;;;;;;16.88;13.52;;;;;;;6.61;77.23;101788.56;5103085;28;20048;-83
2022/01/22 02:54:37;;;;;;;17.35;14.57;;;;;;;6.40;78.07;101795.72;5096362;28;20055;-83
2022/01/22 02:57:05;;;;;;;20.05;15.98;;;;;;;6.45;78.43;101795.00;5102267;28;20492;-83
2022/01/22 02:59:34;;;;;;;15.82;13.40;;;;;;;6.59;77.91;101792.69;5102556;28;20051;-83
2022/01/22 03:02:03;;;;;;;20.50;15.55;;;;;;;6.47;78.28;101788.09;5102410;28;20052;-83
2022/01/22 03:04:31;;;;;;;15.10;13.50;;;;;;;6.50;78.02;101795.88;5102118;28;20056;-84
2022/01/22 03:06:58;;;;;;;18.08;14.60;;;;;;;6.46;78.44;101796.66;5101543;28;20067;-83
2022/01/22 03:09:29;;;;;;;18.83;15.60;;;;;;;6.35;78.79;101798.44;5102093;28;20055;-83
2022/01/22 03:12:29;;;;;;;19.83;16.25;;;;;;;6.31;78.99;101802.78;5103053;28;20067;-82
2022/01/22 03:17:53;;;;;;;18.15;15.77;;;;;;;6.41;78.80;101802.13;5089734;28;19923;-83
2022/01/22 03:20:37;;;;;;;17.65;14.27;;;;;;;6.46;78.29;101802.19;5103626;28;20052;-83
2022/01/22 03:23:10;;;;;;;27.42;18.20;;;;;;;6.36;79.42;101807.56;5103125;28;20055;-84
2022/01/22 03:28:27;;;;;;;17.30;14.75;;;;;;;6.41;78.89;101805.72;5100507;28;20052;-83
2022/01/22 03:30:55;;;;;;;16.50;13.93;;;;;;;6.45;78.67;101804.13;5099034;28;20056;-84
2022/01/22 03:33:24;;;;;;;16.92;15.02;;;;;;;6.49;78.63;101801.69;5099063;28;20047;-83
2022/01/22 03:35:55;;;;;;;17.17;14.07;;;;;;;6.52;78.70;101801.16;5099442;28;20044;-83
2022/01/22 03:38:23;;;;;;;17.40;15.25;;;;;;;6.59;78.48;101807.34;5099345;28;20055;-83
2022/01/22 03:40:52;;;;;;;19.17;16.02;;;;;;;6.66;78.35;101810.78;5099741;28;20493;-83
2022/01/22 03:43:20;;;;;;;16.45;14.25;;;;;;;6.65;79.18;101803.56;5099061;28;20575;-84
2022/01/22 03:45:49;;;;;;;18.55;15.15;;;;;;;6.53;78.72;101805.63;5097332;28;20056;-84
2022/01/22 03:48:16;;;;;;;16.52;13.23;;;;;;;6.63;79.33;101799.38;5098453;28;20047;-84
2022/01/22 03:50:44;;;;;;;17.08;13.77;;;;;;;6.68;78.28;101810.53;5099715;28;20075;-84
2022/01/22 03:53:11;;;;;;;15.93;12.57;;;;;;;6.61;78.58;101810.69;5098788;28;20071;-82
2022/01/22 03:55:49;;;;;;;17.38;13.98;;;;;;;6.63;78.89;101813.22;5098373;28;20048;-83
2022/01/22 03:58:18;;;;;;;17.77;14.88;;;;;;;6.56;78.58;101809.81;5099184;28;20070;-84
2022/01/22 04:00:46;;;;;;;17.40;14.50;;;;;;;6.54;78.73;101812.81;5099854;28;20062;-84
2022/01/22 04:06:43;;;;;;;17.73;14.25;;;;;;;6.55;79.41;101821.97;5093076;28;20110;-84
2022/01/22 04:09:12;;;;;;;18.00;14.27;;;;;;;6.63;79.35;101816.81;5099053;28;20063;-83
2022/01/22 04:11:42;;;;;;;;;;;;;;;6.70;78.40;101813.91;5098749;28;20044;-82
2022/01/22 04:14:17;;;;;;;18.08;14.10;;;;;;;6.70;78.59;101809.19;5097516;28;19942;-84
2022/01/22 04:16:57;;;;;;;17.48;14.20;;;;;;;6.76;78.83;101814.78;5097702;28;20055;-84
2022/01/22 04:24:55;;;;;;;18.15;14.68;;;;;;;6.54;80.00;101821.13;5098739;28;20051;-83
2022/01/22 04:27:26;;;;;;;17.77;14.57;;;;;;;6.67;79.86;101825.47;5097525;28;20055;-84
2022/01/22 04:29:58;;;;;;;16.40;13.85;;;;;;;6.75;79.41;101822.25;5096601;28;20067;-84
2022/01/22 04:32:26;;;;;;;20.52;16.02;;;;;;;6.70;79.06;101824.97;5079350;28;20052;-84
2022/01/22 04:34:54;;;;;;;22.70;17.35;;;;;;;6.80;78.61;101825.09;5096618;28;20071;-84
2022/01/22 04:37:24;;;;;;;18.45;14.90;;;;;;;6.83;79.01;101821.81;5098712;28;20048;-83
2022/01/22 04:39:52;;;;;;;17.30;13.48;;;;;;;6.91;78.46;101832.47;5096771;28;20059;-83
2022/01/22 04:42:21;;;;;;;18.05;15.18;;;;;;;6.95;78.13;101831.94;5098267;28;20405;-84
2022/01/22 04:44:55;;;;;;;18.15;13.93;;;;;;;6.93;78.33;101834.97;5097977;28;20448;-84
2022/01/22 04:47:35;;;;;;;19.98;16.05;;;;;;;6.89;77.90;101828.28;5098384;28;20052;-84
2022/01/22 04:55:31;;;;;;;17.20;13.65;;;;;;;6.92;77.95;101822.22;5064530;28;20163;-84
2022/01/22 04:57:59;;;;;;;16.83;13.48;;;;;;;6.84;78.21;101817.94;5097841;28;20052;-84
2022/01/22 05:00:26;;;;;;;18.85;15.18;;;;;;;6.90;78.20;101818.88;5097991;28;20051;-84
2022/01/22 05:02:55;;;;;;;18.60;14.55;;;;;;;6.90;78.48;101819.69;5097244;28;20060;-83
2022/01/22 05:05:22;;;;;;;22.37;16.47;;;;;;;6.83;77.91;101821.00;5097167;28;20044;-84
2022/01/22 05:07:50;;;;;;;18.92;15.57;;;;;;;6.94;78.31;101824.72;5098021;28;20155;-84
2022/01/22 05:10:17;;;;;;;19.67;15.85;;;;;;;6.98;78.21;101806.50;5096686;28;20047;-84
2022/01/22 05:12:45;;;;;;;17.33;13.85;;;;;;;7.02;78.68;101815.97;5098070;28;20051;-84
2022/01/22 05:15:14;;;;;;;21.48;15.52;;;;;;;6.99;78.09;101817.34;5096519;28;20378;-84
2022/01/22 05:17:44;;;;;;;23.85;18.17;;;;;;;6.96;78.22;101812.28;5096951;28;20066;-83
2022/01/22 05:20:19;;;;;;;21.17;15.25;;;;;;;6.96;77.87;101817.84;5088786;28;20052;-84
2022/01/22 05:22:55;;;;;;;19.15;16.00;;;;;;;6.98;78.23;101823.13;5083579;28;20051;-84
2022/01/22 05:25:29;;;;;;;22.92;16.98;;;;;;;6.97;77.65;101814.00;5098051;28;20404;-84
2022/01/22 05:28:16;;;;;;;24.15;17.40;;;;;;;6.95;77.88;101813.41;5097723;28;20060;-85
2022/01/22 05:31:05;;;;;;;22.02;16.10;;;;;;;7.00;77.96;101813.47;5087560;28;20354;-84
2022/01/22 05:39:08;;;;;;;21.85;15.05;;;;;;;6.99;77.72;101819.25;5101449;28;20048;-84
2022/01/22 05:41:35;;;;;;;18.65;14.13;;;;;;;7.10;77.83;101823.84;5096434;28;20412;-85
2022/01/22 05:44:03;;;;;;;18.50;14.65;;;;;;;7.09;77.98;101828.53;5098217;28;20048;-84
2022/01/22 05:46:30;;;;;;;19.50;14.15;;;;;;;7.15;78.26;101826.66;5096992;28;20048;-85
2022/01/22 05:48:57;;;;;;;16.92;13.15;;;;;;;7.14;78.08;101830.53;5097534;28;20059;-85
2022/01/22 05:51:26;;;;;;;18.23;14.80;;;;;;;7.13;78.29;101845.47;5096266;28;20051;-85
2022/01/22 05:54:17;;;;;;;16.17;13.30;;;;;;;7.21;77.50;101839.50;5097910;28;20047;-85
2022/01/22 05:59:39;;;;;;;16.30;13.13;;;;;;;7.28;77.51;101845.66;5103932;28;20082;-85
2022/01/22 06:02:09;;;;;;;15.45;12.77;;;;;;;7.29;77.65;101850.13;5097051;28;20066;-84
2022/01/22 06:04:37;;;;;;;17.25;13.40;;;;;;;7.18;77.89;101844.69;5096445;28;20373;-84
2022/01/22 06:07:07;;;;;;;19.58;14.45;;;;;;;7.11;78.08;101856.81;5090960;28;20052;-84
2022/01/22 06:09:37;;;;;;;16.80;13.50;;;;;;;7.16;77.93;101856.06;5096392;28;20052;-84
2022/01/22 06:12:16;;;;;;;14.57;11.40;;;;;;;7.20;77.58;101860.00;5088977;28;20083;-84
2022/01/22 06:14:44;;;;;;;14.98;12.43;;;;;;;7.24;77.00;101857.53;5096611;28;20055;-83
2022/01/22 06:17:11;;;;;;;14.82;12.40;;;;;;;7.09;78.17;101858.16;5096170;28;20131;-83
2022/01/22 06:19:39;;;;;;;15.88;12.55;;;;;;;7.24;77.76;101863.91;5096032;28;20044;-84
2022/01/22 06:22:07;;;;;;;16.15;12.18;;;;;;;7.12;78.17;101865.97;5096269;28;20071;-84
2022/01/22 06:24:35;;;;;;;15.48;11.45;;;;;;;7.23;78.12;101862.25;5096551;28;20055;-84
2022/01/22 06:27:03;;;;;;;15.95;12.02;;;;;;;7.25;77.96;101873.91;5097907;28;20056;-84
2022/01/22 06:29:30;;;;;;;14.68;11.23;;;;;;;7.24;78.62;101868.63;5097983;28;20056;-84
2022/01/22 06:31:58;;;;;;;14.68;11.32;;;;;;;7.29;78.25;101869.53;5099842;28;20052;-84
2022/01/22 06:34:25;;;;;;;15.07;10.80;;;;;;;7.40;78.24;101870.47;5097961;28;20511;-84
2022/01/22 06:36:52;;;;;;;14.13;11.38;;;;;;;7.39;78.30;101868.81;5098061;28;20527;-83
2022/01/22 06:39:23;;;;;;;15.25;10.57;;;;;;;7.32;78.42;101859.84;5097574;28;20048;-83
2022/01/22 06:41:49;;;;;;;15.25;10.75;;;;;;;7.38;77.22;101869.06;5097258;28;20052;-84
2022/01/22 06:44:18;;;;;;;14.30;10.20;;;;;;;7.31;78.24;101874.81;5097152;28;20119;-83
2022/01/22 06:46:47;;;;;;;16.27;12.10;;;;;;;7.30;78.32;101873.97;5097036;28;20067;-83
2022/01/22 06:49:15;;;;;;;14.10;11.07;;;;;;;7.35;78.38;101875.13;5097415;28;20075;-84
2022/01/22 06:51:43;;;;;;;13.48;10.75;;;;;;;7.42;77.50;101876.59;5096505;28;20044;-84
2022/01/22 06:54:13;;;;;;;13.00;10.63;;;;;;;7.44;78.49;101884.69;5096073;28;20040;-83
2022/01/22 06:56:41;;;;;;;;;;;;;;;7.30;78.56;101884.22;5097175;28;20056;-84
2022/01/22 06:59:10;;;;;;;14.85;11.13;;;;;;;7.42;77.84;101882.16;5097551;28;19928;-84
2022/01/22 07:01:37;;;;;;;15.60;12.10;;;;;;;7.44;78.47;101884.69;5097164;28;20409;-83
2022/01/22 07:04:05;;;;;;;15.75;11.90;;;;;;;7.43;78.45;101889.38;5099769;28;20221;-84
2022/01/22 07:06:32;;;;;;;16.08;12.85;;;;;;;7.44;78.29;101887.44;5098278;28;20058;-84
2022/01/22 07:09:00;;;;;;;16.38;12.63;;;;;;;7.44;78.13;101898.53;5099520;28;20055;-84
2022/01/22 07:11:27;;;;;;;15.05;11.70;;;;;;;7.49;77.85;101890.28;5099740;28;20048;-84
2022/01/22 07:13:56;;;;;;;15.13;12.32;;;;;;;7.56;77.28;101890.94;5100268;28;20044;-84
2022/01/22 07:16:24;;;;;;;17.60;13.23;;;;;;;7.52;77.98;101893.38;5100803;28;20052;-85
2022/01/22 07:18:54;;;;;;;15.70;12.30;;;;;;;7.57;77.99;101889.81;5100165;28;20063;-84
2022/01/22 07:21:22;;;;;;;16.00;11.98;;;;;;;7.62;77.40;101900.13;5100332;28;20055;-84
2022/01/22 07:24:22;;;;;;;18.20;13.25;;;;;;;7.62;77.14;101903.75;5087384;28;20059;-83
2022/01/22 07:26:45;;;;;;;15.80;12.52;;;;;;;7.64;78.04;101907.09;5099770;28;20064;-84
2022/01/22 07:29:13;;;;;;;18.95;13.45;;;;;;;7.52;77.83;101909.19;5099455;28;20047;-84
2022/01/22 07:31:41;;;;;;;19.25;14.10;;;;;;;7.55;77.51;101916.97;5099939;28;20048;-84
2022/01/22 07:34:08;;;;;;;19.38;14.40;;;;;;;7.61;78.11;101918.69;5099434;28;20159;-83
2022/01/22 07:36:36;;;;;;;17.42;12.20;;;;;;;7.66;77.47;101918.75;5098871;28;20493;-84
2022/01/22 07:39:05;;;;;;;17.77;13.48;;;;;;;7.49;77.89;101918.00;5100618;28;20058;-84
2022/01/22 07:41:32;;;;;;;19.97;14.83;;;;;;;7.55;77.47;101914.19;5098658;28;20052;-83
2022/01/22 07:44:00;;;;;;;19.83;14.40;;;;;;;7.64;77.92;101929.28;5098363;28;20052;-85
2022/01/22 07:46:28;;;;;;;19.67;14.40;;;;;;;7.71;77.67;101929.09;5095980;28;20056;-84
2022/01/22 07:48:56;;;;;;;13.73;11.45;;;;;;;7.70;77.35;101928.22;5097984;28;20071;-84
2022/01/22 07:51:23;;;;;;;18.10;13.02;;;;;;;7.67;77.75;101922.38;5096486;28;20405;-84
2022/01/22 07:53:51;;;;;;;17.67;12.43;;;;;;;7.70;77.15;101928.22;5095682;28;20512;-84
2022/01/22 07:56:18;;;;;;;15.82;11.55;;;;;;;7.69;77.07;101929.34;5099913;28;20048;-84
2022/01/22 07:58:46;;;;;;;15.00;12.80;;;;;;;7.64;77.71;101929.28;5084483;28;20501;-84
2022/01/22 08:01:13;;;;;;;15.30;12.60;;;;;;;7.68;77.59;101930.41;5082908;28;20053;-83
2022/01/22 08:03:42;;;;;;;15.48;11.65;;;;;;;7.67;77.20;101939.84;5088313;28;20048;-82
2022/01/22 08:06:09;;;;;;;15.35;12.23;;;;;;;7.67;77.90;101933.47;5092425;28;20052;-82
2022/01/22 08:08:37;;;;;;;13.10;10.88;;;;;;;7.71;77.34;101943.78;5084240;28;20048;-83
2022/01/22 08:11:04;;;;;;;15.10;11.60;;;;;;;7.66;77.15;101935.38;5082266;28;20052;-83
2022/01/22 08:13:32;;;;;;;13.50;11.15;;;;;;;7.71;77.23;101934.63;5120258;28;20051;-83
2022/01/22 08:15:59;;;;;;;15.50;11.43;;;;;;;7.79;76.58;101923.09;5094442;28;20057;-83
2022/01/22 08:18:26;;;;;;;12.60;10.35;;;;;;;7.82;76.99;101925.31;5096491;28;20059;-83
2022/01/22 08:20:55;;;;;;;13.10;10.27;;;;;;;7.90;76.57;101930.41;5097699;28;20055;-83
2022/01/22 08:23:26;;;;;;;16.52;12.70;;;;;;;7.91;76.10;101931.25;5100349;28;20052;-84
2022/01/22 08:25:53;;;;;;;16.67;12.02;;;;;;;7.90;76.54;101927.63;5099227;28;20056;-84
2022/01/22 08:31:17;;;;;;;16.15;13.05;;;;;;;7.88;76.53;101932.59;5097075;28;20067;-84
2022/01/22 08:36:31;;;;;;;17.52;12.73;;;;;;;7.95;76.30;101932.41;5093756;28;20443;-83
2022/01/22 08:38:58;;;;;;;17.95;12.38;;;;;;;7.86;76.12;101936.75;5094308;28;20048;-84
2022/01/22 08:41:26;;;;;;;18.23;12.77;;;;;;;7.88;76.70;101945.66;5098286;28;20052;-83
2022/01/22 08:43:54;;;;;;;16.52;13.02;;;;;;;7.91;76.60;101942.34;5095540;28;20055;-83
2022/01/22 08:46:22;;;;;;;15.63;12.50;;;;;;;8.00;76.32;101942.72;5093067;28;20090;-82
2022/01/22 08:48:49;;;;;;;14.18;11.88;;;;;;;8.02;76.40;101943.28;5088843;28;20071;-82
2022/01/22 08:51:17;;;;;;;20.17;13.15;;;;;;;8.08;75.67;101951.44;5097871;28;20052;-82
2022/01/22 08:53:47;;;;;;;18.23;12.60;;;;;;;8.10;75.56;101940.88;5087937;28;20047;-81
2022/01/22 08:56:15;;;;;;;13.68;12.07;;;;;;;8.12;75.62;101943.41;5098411;28;20130;-83
2022/01/22 08:58:43;;;;;;;17.02;12.73;;;;;;;8.05;76.18;101945.56;5095669;28;20066;-82
2022/01/22 09:01:11;;;;;;;16.10;12.70;;;;;;;8.24;75.55;101941.31;5096453;28;20504;-82
2022/01/22 09:03:39;;;;;;;14.75;11.38;;;;;;;8.31;74.66;101941.09;5100314;28;20055;-82
2022/01/22 09:06:07;;;;;;;15.68;12.05;;;;;;;8.48;73.80;101936.31;5097168;28;20055;-83
2022/01/22 09:08:35;;;;;;;17.73;12.85;;;;;;;8.53;73.99;101935.50;5092845;28;20044;-83
2022/01/22 09:11:04;;;;;;;15.45;12.40;;;;;;;8.48;73.81;101936.31;5077922;28;20063;-84
2022/01/22 09:13:31;;;;;;;15.55;11.40;;;;;;;8.56;73.44;101940.50;5082706;28;20052;-83
2022/01/22 09:15:59;;;;;;;16.70;11.85;;;;;;;8.56;73.23;101940.50;5097955;28;20078;-83
2022/01/22 09:18:27;;;;;;;15.27;12.20;;;;;;;8.55;73.07;101944.41;5097545;28;20051;-83
2022/01/22 09:21:04;;;;;;;15.60;12.43;;;;;;;8.54;72.88;101949.09;5094806;28;20500;-84
2022/01/22 09:23:33;;;;;;;15.88;11.02;;;;;;;8.58;73.15;101948.59;5086668;28;20071;-86
2022/01/22 09:26:03;;;;;;;16.27;12.18;;;;;;;8.61;72.96;101948.03;5084726;28;20044;-86
2022/01/22 09:28:34;;;;;;;15.70;11.20;;;;;;;8.63;72.68;101960.59;5100291;28;20051;-85
2022/01/22 09:31:02;;;;;;;15.73;10.73;;;;;;;8.76;72.59;101962.06;5098622;28;20052;-84
2022/01/22 09:33:30;;;;;;;15.90;12.00;;;;;;;8.82;72.49;101954.59;5099010;28;20052;-83
2022/01/22 09:35:57;;;;;;;15.05;10.68;;;;;;;8.86;72.13;101966.84;5097721;28;20405;-84
2022/01/22 09:38:25;;;;;;;14.00;10.90;;;;;;;8.85;72.26;101966.03;5099189;28;20409;-84
2022/01/22 09:40:52;;;;;;;14.98;11.80;;;;;;;8.92;71.90;101969.44;5096768;28;20048;-82
2022/01/22 09:43:19;;;;;;;13.85;11.30;;;;;;;8.96;72.16;101975.28;5081584;28;20052;-83
2022/01/22 09:45:51;;;;;;;13.23;10.48;;;;;;;9.12;71.74;101973.44;5091597;28;20044;-83
2022/01/22 09:48:18;;;;;;;17.65;11.68;;;;;;;9.08;72.35;101969.53;5096225;28;20055;-82
2022/01/22 09:50:45;;;;;;;18.35;11.38;;;;;;;9.06;72.71;101980.06;5097186;28;20055;-83
2022/01/22 09:53:12;;;;;;;16.88;13.13;;;;;;;9.13;72.47;101986.22;5081557;28;20056;-82
2022/01/22 09:55:40;;;;;;;13.73;10.38;;;;;;;9.20;72.46;101984.06;5095614;28;20058;-84
2022/01/22 09:58:08;;;;;;;16.52;11.18;;;;;;;9.32;72.34;101981.06;5096407;28;20082;-84
2022/01/22 10:00:36;;;;;;;15.05;11.45;;;;;;;9.35;71.80;101986.94;5098127;28;20083;-83
2022/01/22 10:03:16;;;;;;;13.68;10.93;;;;;;;9.32;71.16;101986.63;5097022;28;20048;-83
2022/01/22 10:05:43;;;;;;;15.02;10.95;;;;;;;9.37;71.15;101980.28;5085560;28;20052;-84
2022/01/22 10:08:27;;;;;;;13.25;10.52;;;;;;;9.40;70.78;101985.28;5077972;28;20051;-85
2022/01/22 10:10:56;;;;;;;14.07;10.77;;;;;;;9.43;71.15;101981.97;5093780;28;20056;-84
2022/01/22 10:13:43;;;;;;;17.00;9.47;;;;;;;9.27;71.01;101987.44;5096436;28;20048;-84
2022/01/22 10:16:16;;;;;;;12.38;9.40;;;;;;;9.34;71.15;101990.84;5098008;28;20049;-83
2022/01/22 10:18:46;;;;;;;16.88;10.35;;;;;;;9.38;70.89;101984.72;5097317;28;20044;-84
2022/01/22 10:21:16;;;;;;;;;;;;;;;9.10;71.62;101984.00;5099135;28;20059;-84
2022/01/22 10:23:43;;;;;;;15.27;10.90;;;;;;;9.02;72.23;101976.16;5094208;28;19927;-85
2022/01/22 10:26:15;;;;;;;13.93;10.90;;;;;;;9.12;71.79;101976.22;5087488;28;20450;-84
2022/01/22 10:28:47;;;;;;;16.00;10.75;;;;;;;9.12;72.36;101981.78;5097632;28;20048;-85
2022/01/22 10:31:24;;;;;;;13.00;9.43;;;;;;;9.18;72.33;101966.00;5095518;28;20063;-85
2022/01/22 10:34:11;;;;;;;12.60;9.70;;;;;;;9.27;72.21;101972.72;5076673;28;20059;-84
2022/01/22 10:36:39;;;;;;;12.65;8.82;;;;;;;9.07;72.69;101974.25;5091983;28;20424;-86
2022/01/22 10:39:10;;;;;;;12.00;8.75;;;;;;;9.15;72.06;101981.25;5093925;28;20420;-87
2022/01/22 10:41:40;;;;;;;10.88;8.48;;;;;;;9.08;71.94;101980.66;5099476;28;20051;-86
2022/01/22 10:44:14;;;;;;;10.57;7.88;;;;;;;9.18;71.64;101980.72;5099960;28;20055;-85
2022/01/22 10:46:47;;;;;;;9.73;7.95;;;;;;;9.14;71.66;101983.19;5101749;28;20044;-85
2022/01/22 10:49:19;;;;;;;8.38;7.45;;;;;;;9.19;72.02;101990.72;5102431;28;20055;-85
2022/01/22 10:51:49;;;;;;;10.80;8.63;;;;;;;9.12;71.99;101995.69;5101846;28;20056;-85
2022/01/22 10:54:18;;;;;;;11.60;9.13;;;;;;;9.16;72.37;101999.59;5100611;28;20052;-86
2022/01/22 10:56:45;;;;;;;14.45;10.50;;;;;;;9.14;72.38;101996.25;5097957;28;20063;-85
2022/01/22 10:59:16;;;;;;;13.65;10.25;;;;;;;9.09;72.45;101994.28;5102293;28;20052;-86
2022/01/22 11:01:51;;;;;;;12.45;10.80;;;;;;;9.22;72.30;102004.09;5102508;28;20052;-86
2022/01/22 11:04:23;;;;;;;15.23;10.95;;;;;;;9.23;72.10;101991.84;5082748;28;20052;-85
2022/01/22 11:06:54;;;;;;;14.18;10.90;;;;;;;9.02;72.70;101998.38;5096188;28;20052;-84
2022/01/22 11:09:24;;;;;;;15.25;11.20;;;;;;;9.18;72.59;102000.19;5085344;28;20417;-85
2022/01/22 11:11:52;;;;;;;14.15;10.68;;;;;;;9.29;71.81;101995.53;5098680;28;20056;-84
2022/01/22 11:14:20;;;;;;;14.15;10.98;;;;;;;9.14;71.82;102001.81;5081769;28;20053;-83
2022/01/22 11:16:50;;;;;;;11.77;9.43;;;;;;;9.12;71.67;101990.13;5095220;28;20063;-85
2022/01/22 11:19:22;;;;;;;12.73;10.48;;;;;;;9.16;72.08;101996.84;5100487;28;20052;-83
2022/01/22 11:21:52;;;;;;;13.35;10.45;;;;;;;9.28;71.47;102003.03;5100276;28;20044;-87
2022/01/22 11:24:21;;;;;;;10.02;8.15;;;;;;;9.35;70.93;101994.44;5098301;28;20416;-86
2022/01/22 11:26:51;;;;;;;12.40;9.43;;;;;;;9.34;70.71;101995.53;5088479;28;20053;-86
2022/01/22 11:29:23;;;;;;;13.30;10.40;;;;;;;9.24;71.14;101993.56;5093124;28;20067;-85
2022/01/22 11:31:53;;;;;;;13.70;10.38;;;;;;;9.39;71.19;101998.38;5094797;28;20078;-86
2022/01/22 11:34:24;;;;;;;13.60;10.43;;;;;;;9.31;71.19;101999.69;5099255;28;20044;-84
2022/01/22 11:36:59;;;;;;;13.13;10.00;;;;;;;9.28;70.86;102003.03;5098393;28;20078;-84
2022/01/22 11:39:28;;;;;;;12.43;10.18;;;;;;;9.29;71.87;102012.19;5098920;28;20052;-85
2022/01/22 11:41:58;;;;;;;14.55;10.27;;;;;;;9.30;71.42;101998.03;5101251;28;20130;-85
2022/01/22 11:44:32;;;;;;;14.85;11.52;;;;;;;9.31;71.06;101994.13;5100742;28;20051;-84
2022/01/22 11:47:15;;;;;;;15.23;10.15;;;;;;;9.32;71.13;101994.97;5100252;28;20052;-85
2022/01/22 11:50:06;;;;;;;15.75;11.43;;;;;;;9.20;71.00;101994.34;5098563;28;20048;-85
2022/01/22 11:52:37;;;;;;;14.50;10.90;;;;;;;9.18;71.03;102002.97;5099870;28;20059;-85
2022/01/22 11:55:09;;;;;;;14.73;10.80;;;;;;;9.09;71.05;101999.84;5099258;28;20056;-84
2022/01/22 11:57:37;;;;;;;13.70;11.15;;;;;;;9.03;71.74;101995.34;5097651;28;20044;-85
2022/01/22 12:00:23;;;;;;;15.60;11.65;;;;;;;9.17;71.03;101995.72;5098271;28;20059;-86
2022/01/22 12:03:20;;;;;;;14.27;10.48;;;;;;;9.19;71.01;101985.16;5098675;28;20052;-84
2022/01/22 12:06:08;;;;;;;14.48;11.25;;;;;;;9.10;70.97;101984.00;5099068;28;20047;-84
2022/01/22 12:09:05;;;;;;;14.18;10.50;;;;;;;9.21;70.62;101991.28;5099043;28;20052;-84
2022/01/22 12:14:55;;;;;;;13.02;9.75;;;;;;;9.31;70.18;101984.97;5105093;28;20082;-84
2022/01/22 12:17:59;;;;;;;10.88;8.52;;;;;;;9.38;69.81;101981.94;5098707;28;20052;-84
2022/01/22 12:23:49;;;;;;;9.55;8.55;;;;;;;9.97;68.57;101976.09;5048053;28;20056;-85
2022/01/22 12:26:36;;;;;;;10.98;9.02;;;;;;;9.93;68.14;101978.59;5078494;28;20076;-84
2022/01/22 12:29:34;;;;;;;9.85;8.38;;;;;;;10.04;68.01;101964.72;5078622;28;20044;-84
2022/01/22 12:32:22;;;;;;;10.93;8.45;;;;;;;9.67;68.48;101972.06;5097471;28;20052;-84
2022/01/22 12:35:08;;;;;;;10.32;8.45;;;;;;;9.76;68.65;101969.59;5098492;28;20405;-84
2022/01/22 12:37:41;;;;;;;10.50;7.70;;;;;;;9.79;68.62;101969.06;5098520;28;20497;-85
2022/01/22 12:40:26;;;;;;;9.07;7.68;;;;;;;9.80;68.57;101978.25;5098424;28;20058;-84